Time;durP1;ratioP1;P1;durP2;ratioP2;P2;SDS_P1;SDS_P2;PMS_P1;PMS_P2;Temp;Humidity;BMP_temperature;BMP_pressure;BME280_temperature;BME280_humidity;BME280_pressure;Samples;Min_cycle;Max_cycle;Signal;HPM_P1;HPM_P2
2022/01/28 00:01:02;;;;;;;9.98;1.17;;;4.80;99.90;;;;;;5029416;28;20132;-73
2022/01/28 00:03:30;;;;;;;12.10;0.70;;;4.70;99.90;;;;;;5029046;28;20128;-74
2022/01/28 00:05:56;;;;;;;15.55;0.77;;;4.70;99.90;;;;;;5009560;28;20050;-74
2022/01/28 00:08:22;;;;;;;15.35;0.82;;;4.60;99.90;;;;;;5022301;28;20053;-74
2022/01/28 00:10:50;;;;;;;12.63;0.88;;;4.50;99.90;;;;;;5019560;28;20159;-74
2022/01/28 00:15:56;;;;;;;8.57;0.77;;;4.30;99.90;;;;;;5029596;28;20140;-74
2022/01/28 00:38:03;;;;;;;15.45;1.58;;;4.20;99.90;;;;;;5028965;28;20061;-73
2022/01/28 00:40:30;;;;;;;13.70;1.75;;;4.20;99.90;;;;;;5013471;28;20052;-74
2022/01/28 00:42:56;;;;;;;13.05;1.45;;;4.20;99.90;;;;;;5028620;28;20128;-74
2022/01/28 00:45:22;;;;;;;12.23;1.88;;;4.30;99.90;;;;;;5028969;28;20128;-74
2022/01/28 00:47:48;;;;;;;17.42;1.45;;;4.30;99.90;;;;;;5027847;28;20042;-74
2022/01/28 00:50:15;;;;;;;14.43;1.35;;;4.30;99.90;;;;;;5029391;28;20049;-74
2022/01/28 00:52:40;;;;;;;17.48;2.05;;;4.30;99.90;;;;;;5028803;28;20052;-74
2022/01/28 00:55:07;;;;;;;12.02;0.93;;;4.40;99.90;;;;;;5030728;28;20041;-74
2022/01/28 00:57:32;;;;;;;15.70;1.45;;;4.50;99.90;;;;;;5033266;28;20064;-73
2022/01/28 00:59:58;;;;;;;18.88;1.88;;;4.40;99.90;;;;;;5031776;28;20609;-73
2022/01/28 01:02:24;;;;;;;22.40;1.55;;;4.50;99.90;;;;;;5033425;28;20353;-73
2022/01/28 01:04:49;;;;;;;14.70;1.73;;;4.50;99.90;;;;;;5032068;28;20049;-72
2022/01/28 01:07:15;;;;;;;16.42;1.20;;;4.40;99.90;;;;;;5016319;28;20445;-72
2022/01/28 01:09:41;;;;;;;12.70;1.33;;;4.40;99.90;;;;;;5032677;28;20445;-74
2022/01/28 01:12:07;;;;;;;21.00;1.67;;;4.40;99.90;;;;;;5032685;28;20092;-75
2022/01/28 01:14:33;;;;;;;24.85;1.58;;;4.40;99.90;;;;;;5032420;28;20095;-74
2022/01/28 01:17:10;;;;;;;19.13;1.88;;;4.40;99.90;;;;;;5032066;28;20045;-74
2022/01/28 01:19:41;;;;;;;20.98;2.38;;;4.50;99.90;;;;;;5032513;28;20136;-73
2022/01/28 01:22:08;;;;;;;16.02;1.70;;;4.50;99.90;;;;;;5031655;28;20096;-73
2022/01/28 01:24:37;;;;;;;15.30;1.88;;;4.50;99.90;;;;;;5032713;28;20049;-73
2022/01/28 01:27:04;;;;;;;15.55;2.47;;;4.50;99.90;;;;;;5031959;28;20049;-73
2022/01/28 01:29:30;;;;;;;16.92;2.20;;;4.50;99.90;;;;;;5031896;28;20448;-73
2022/01/28 01:32:04;;;;;;;21.67;2.30;;;4.60;99.90;;;;;;5031811;28;20045;-74
2022/01/28 01:34:29;;;;;;;21.70;1.88;;;4.60;99.90;;;;;;5032351;28;20045;-73
2022/01/28 01:36:55;;;;;;;20.38;1.67;;;4.60;99.90;;;;;;5031607;28;20087;-73
2022/01/28 01:39:24;;;;;;;16.33;1.45;;;4.60;99.90;;;;;;5032245;28;20111;-73
2022/01/28 01:41:59;;;;;;;16.48;1.75;;;4.50;99.90;;;;;;5031952;28;20375;-73
2022/01/28 01:52:49;;;;;;;17.38;1.60;;;4.40;99.90;;;;;;5031551;28;20128;-74
2022/01/28 01:55:15;;;;;;;18.15;2.03;;;4.40;99.90;;;;;;5031902;28;20171;-74
2022/01/28 01:57:42;;;;;;;22.83;2.55;;;4.50;99.90;;;;;;5031084;28;20064;-74
2022/01/28 02:00:08;;;;;;;23.25;2.42;;;4.50;99.90;;;;;;5014893;28;20567;-74
2022/01/28 02:02:34;;;;;;;19.35;1.15;;;4.60;99.90;;;;;;5032126;28;20401;-74
2022/01/28 02:05:00;;;;;;;18.25;1.48;;;4.60;99.90;;;;;;5030858;28;20045;-75
2022/01/28 02:07:26;;;;;;;16.30;2.35;;;4.70;99.90;;;;;;5031949;28;20052;-75
2022/01/28 02:09:52;;;;;;;16.40;1.75;;;4.70;99.90;;;;;;5014960;28;20053;-74
2022/01/28 02:12:18;;;;;;;12.48;1.48;;;4.70;99.90;;;;;;5014894;28;20486;-73
2022/01/28 02:14:43;;;;;;;22.73;2.33;;;4.70;99.90;;;;;;5031410;28;20050;-74
2022/01/28 02:17:09;;;;;;;15.80;2.60;;;4.60;99.90;;;;;;5030676;28;20044;-74
2022/01/28 02:19:36;;;;;;;19.13;2.00;;;4.60;99.90;;;;;;5031547;28;20099;-74
2022/01/28 02:22:02;;;;;;;15.93;1.65;;;4.60;99.90;;;;;;5031295;28;20080;-74
2022/01/28 02:24:34;;;;;;;15.65;2.17;;;4.50;99.90;;;;;;5030624;28;20105;-74
2022/01/28 02:27:00;;;;;;;15.88;1.98;;;4.40;99.90;;;;;;5038317;28;20041;-74
2022/01/28 02:29:28;;;;;;;18.63;2.33;;;4.40;99.90;;;;;;5035636;28;20099;-74
2022/01/28 02:31:55;;;;;;;28.40;2.40;;;4.40;99.90;;;;;;5030839;28;20452;-75
2022/01/28 02:34:21;;;;;;;16.00;1.63;;;4.30;99.90;;;;;;5014558;28;20413;-74
2022/01/28 02:36:46;;;;;;;22.13;2.22;;;4.40;99.90;;;;;;5014546;28;20045;-74
2022/01/28 02:39:12;;;;;;;13.63;1.63;;;4.40;99.90;;;;;;5021750;28;20126;-75
2022/01/28 02:41:42;;;;;;;23.33;1.77;;;4.40;99.90;;;;;;5030766;28;20045;-74
2022/01/28 02:46:40;;;;;;;17.20;1.52;;;4.50;99.90;;;;;;5030156;28;20058;-72
2022/01/28 02:49:09;;;;;;;21.98;1.52;;;4.60;99.90;;;;;;5027799;28;20061;-72
2022/01/28 02:51:35;;;;;;;18.83;1.85;;;4.70;99.90;;;;;;5031391;28;20060;-72
2022/01/28 02:54:12;;;;;;;16.17;2.38;;;4.70;99.90;;;;;;5029796;28;20041;-72
2022/01/28 02:56:45;;;;;;;22.02;2.20;;;4.80;99.90;;;;;;5031198;28;20068;-72
2022/01/28 02:59:11;;;;;;;15.23;1.38;;;4.80;99.90;;;;;;5014243;28;20037;-72
2022/01/28 03:01:36;;;;;;;14.02;1.17;;;4.80;99.90;;;;;;5013975;28;20057;-72
2022/01/28 03:04:04;;;;;;;17.67;2.28;;;4.80;99.90;;;;;;5013542;28;20049;-72
2022/01/28 03:06:30;;;;;;;14.35;1.75;;;4.90;99.90;;;;;;5030468;28;20052;-72
2022/01/28 03:08:58;;;;;;;19.05;1.60;;;4.90;99.90;;;;;;5041453;28;20041;-74
2022/01/28 03:14:15;;;;;;;10.15;1.25;;;5.00;99.90;;;;;;5031012;28;20084;-74
2022/01/28 03:17:11;;;;;;;14.48;1.42;;;5.00;99.90;;;;;;5030664;28;20050;-73
2022/01/28 03:20:05;;;;;;;15.18;1.33;;;5.00;99.90;;;;;;5027956;28;20123;-73
2022/01/28 03:22:27;;;;;;;13.45;1.38;;;5.00;99.90;;;;;;5028815;28;20041;-73
2022/01/28 03:24:53;;;;;;;15.75;2.10;;;4.90;99.90;;;;;;5013548;28;20051;-73
2022/01/28 03:27:41;;;;;;;10.90;1.75;;;4.90;99.90;;;;;;5030269;28;20523;-74
2022/01/28 03:30:05;;;;;;;13.07;1.30;;;4.90;99.90;;;;;;5029787;28;20529;-74
2022/01/28 03:32:30;;;;;;;8.73;1.27;;;4.90;99.90;;;;;;5013639;28;20049;-74
2022/01/28 03:34:56;;;;;;;14.20;1.60;;;5.00;99.90;;;;;;5029419;28;20050;-71
2022/01/28 03:37:22;;;;;;;17.90;1.42;;;5.00;99.90;;;;;;5015638;28;20500;-71
2022/01/28 03:39:48;;;;;;;13.75;1.95;;;5.00;99.90;;;;;;5049559;28;20048;-74
2022/01/28 03:42:13;;;;;;;15.15;1.40;;;5.00;99.90;;;;;;5017511;28;20072;-74
2022/01/28 03:44:39;;;;;;;10.75;1.50;;;4.90;99.90;;;;;;5030123;28;20116;-74
2022/01/28 03:47:05;;;;;;;13.40;1.05;;;5.00;99.90;;;;;;5029265;28;20059;-74
2022/01/28 03:49:30;;;;;;;13.45;1.05;;;4.90;99.90;;;;;;5029671;28;20064;-74
2022/01/28 03:51:56;;;;;;;11.82;1.10;;;4.90;99.90;;;;;;5029360;28;20405;-74
2022/01/28 03:54:22;;;;;;;14.40;1.02;;;4.90;99.90;;;;;;5030415;28;20049;-73
2022/01/28 03:56:47;;;;;;;15.60;1.10;;;4.90;99.90;;;;;;5011940;28;20148;-75
2022/01/28 03:59:13;;;;;;;15.75;1.48;;;4.90;99.90;;;;;;5013913;28;20052;-75
2022/01/28 04:01:40;;;;;;;13.60;1.38;;;4.90;99.90;;;;;;5029078;28;20164;-73
2022/01/28 04:12:20;;;;;;;14.50;1.33;;;4.70;99.90;;;;;;5031765;28;20144;-73
2022/01/28 04:15:21;;;;;;;18.35;1.75;;;4.70;99.90;;;;;;5029229;28;20505;-73
2022/01/28 04:17:32;;;;;;;17.50;1.13;;;4.80;99.90;;;;;;5028279;28;20081;-73
2022/01/28 04:19:58;;;;;;;15.43;1.65;;;4.80;99.90;;;;;;5028956;28;20464;-72
2022/01/28 04:22:24;;;;;;;19.83;1.70;;;4.80;99.90;;;;;;5013024;28;20133;-72
2022/01/28 04:24:49;;;;;;;14.50;1.35;;;4.80;99.90;;;;;;5028160;28;20080;-72
2022/01/28 04:27:15;;;;;;;17.80;1.83;;;4.80;99.90;;;;;;5029480;28;20080;-73
2022/01/28 04:29:41;;;;;;;18.75;2.00;;;4.80;99.90;;;;;;5028843;28;20108;-73
2022/01/28 04:32:08;;;;;;;18.10;1.60;;;4.80;99.90;;;;;;5028395;28;20061;-73
2022/01/28 04:34:34;;;;;;;21.95;2.65;;;4.70;99.90;;;;;;5012683;28;20042;-73
2022/01/28 04:40:05;;;;;;;11.73;1.33;;;4.60;99.90;;;;;;5032887;28;20049;-73
2022/01/28 04:42:54;;;;;;;19.95;2.00;;;4.60;99.90;;;;;;5029695;28;20053;-75
2022/01/28 04:48:13;;;;;;;20.60;2.20;;;4.60;99.90;;;;;;5028395;28;20081;-74
2022/01/28 04:53:23;;;;;;;14.88;1.70;;;4.40;99.90;;;;;;5028116;28;20140;-74
2022/01/28 04:58:27;;;;;;;18.42;2.05;;;4.40;99.90;;;;;;5040554;28;20049;-74
2022/01/28 05:01:24;;;;;;;13.48;1.67;;;4.40;99.90;;;;;;5027861;28;20057;-74
2022/01/28 05:09:36;;;;;;;22.40;2.08;;;4.30;99.90;;;;;;5031370;28;20473;-74
2022/01/28 05:25:46;;;;;;;17.85;2.22;;;4.60;99.90;;;;;;5028629;28;20045;-72
2022/01/28 05:28:04;;;;;;;16.45;1.38;;;4.70;99.90;;;;;;5027403;28;20050;-75
2022/01/28 05:30:29;;;;;;;15.73;1.63;;;4.70;99.90;;;;;;5028764;28;20115;-73
2022/01/28 05:32:55;;;;;;;16.67;2.28;;;4.80;99.40;;;;;;5027687;28;20128;-73
2022/01/28 05:35:20;;;;;;;24.55;2.22;;;4.80;99.40;;;;;;5028858;28;20403;-73
2022/01/28 05:37:46;;;;;;;11.38;1.60;;;4.90;98.90;;;;;;5030741;28;20051;-73
2022/01/28 05:40:12;;;;;;;14.13;1.50;;;4.90;99.00;;;;;;5035651;28;20056;-74
2022/01/28 05:42:38;;;;;;;15.75;1.77;;;5.00;98.90;;;;;;5037814;28;20132;-75
2022/01/28 05:45:04;;;;;;;18.20;2.00;;;4.90;98.60;;;;;;5031985;28;20124;-76
2022/01/28 05:47:32;;;;;;;16.10;1.92;;;4.90;98.40;;;;;;5032304;28;20100;-72
2022/01/28 05:49:58;;;;;;;19.85;1.77;;;4.90;98.40;;;;;;5031277;28;20058;-72
2022/01/28 05:52:23;;;;;;;26.40;2.42;;;4.90;98.30;;;;;;5015938;28;20045;-73
2022/01/28 05:54:49;;;;;;;14.90;2.05;;;4.80;98.00;;;;;;5031580;28;20037;-73
2022/01/28 05:57:14;;;;;;;14.65;2.17;;;4.80;98.00;;;;;;5031673;28;20478;-73
2022/01/28 05:59:40;;;;;;;17.20;1.70;;;4.70;98.10;;;;;;5032092;28;20041;-72
2022/01/28 06:02:06;;;;;;;14.75;2.08;;;4.70;98.10;;;;;;5031706;28;20060;-72
2022/01/28 06:04:31;;;;;;;15.80;1.98;;;4.70;98.00;;;;;;5031445;28;20053;-74
2022/01/28 06:06:57;;;;;;;20.10;2.33;;;4.60;98.10;;;;;;5030902;28;20112;-74
2022/01/28 06:09:22;;;;;;;20.30;2.30;;;4.50;98.20;;;;;;5014698;28;20387;-76
2022/01/28 06:11:48;;;;;;;18.73;2.22;;;4.50;98.20;;;;;;5031047;28;20106;-76
2022/01/28 06:14:14;;;;;;;17.52;2.30;;;4.40;98.20;;;;;;5031906;28;20049;-76
2022/01/28 06:16:39;;;;;;;21.65;2.33;;;4.30;98.40;;;;;;5014691;28;20045;-75
2022/01/28 06:19:05;;;;;;;15.85;2.03;;;4.20;98.50;;;;;;5031290;28;20882;-75
2022/01/28 06:21:30;;;;;;;21.35;1.60;;;4.10;98.50;;;;;;5031528;28;20464;-73
2022/01/28 06:23:56;;;;;;;26.05;2.55;;;4.00;98.70;;;;;;5029889;28;20053;-72
2022/01/28 06:26:22;;;;;;;19.40;2.97;;;4.00;98.80;;;;;;5031595;28;20397;-72
2022/01/28 06:28:48;;;;;;;22.63;2.97;;;4.00;98.80;;;;;;5030680;28;20140;-73
2022/01/28 06:31:13;;;;;;;19.73;2.33;;;3.90;98.90;;;;;;5031199;28;20580;-75
2022/01/28 06:33:39;;;;;;;20.33;1.58;;;3.80;98.90;;;;;;5031037;28;20060;-75
2022/01/28 06:36:05;;;;;;;21.75;2.17;;;3.80;99.00;;;;;;5030820;28;20076;-76
2022/01/28 06:38:33;;;;;;;20.55;2.72;;;3.80;99.10;;;;;;5031055;28;20049;-74
2022/01/28 06:40:59;;;;;;;15.05;2.15;;;3.80;99.10;;;;;;5031667;28;20040;-75
2022/01/28 06:43:24;;;;;;;17.83;2.38;;;3.70;99.10;;;;;;5015018;28;20041;-76
2022/01/28 06:45:50;;;;;;;17.85;2.05;;;3.60;99.10;;;;;;5012813;28;20041;-72
2022/01/28 06:48:16;;;;;;;24.13;3.10;;;3.60;99.20;;;;;;5031573;28;20046;-75
2022/01/28 06:50:44;;;;;;;22.30;1.75;;;3.50;99.40;;;;;;5032024;28;20049;-73
2022/01/28 06:53:13;;;;;;;16.70;1.92;;;3.50;99.60;;;;;;5028187;28;20037;-73
2022/01/28 06:55:39;;;;;;;17.55;2.38;;;3.30;99.60;;;;;;5024407;28;20446;-72
2022/01/28 06:58:07;;;;;;;14.75;2.35;;;3.30;99.60;;;;;;5016356;28;20036;-73
2022/01/28 07:00:37;;;;;;;18.45;2.13;;;3.20;99.70;;;;;;5030462;28;20085;-72
2022/01/28 07:03:04;;;;;;;20.38;1.80;;;3.10;99.90;;;;;;5013767;28;20033;-73
2022/01/28 07:05:30;;;;;;;19.33;1.85;;;3.00;99.90;;;;;;5030301;28;20045;-72
2022/01/28 07:07:56;;;;;;;17.88;1.73;;;2.90;99.90;;;;;;5030479;28;20381;-72
2022/01/28 07:10:21;;;;;;;22.75;2.35;;;2.80;99.90;;;;;;5014059;28;20576;-72
2022/01/28 07:12:47;;;;;;;15.00;2.03;;;2.70;99.90;;;;;;5011444;28;20037;-72
2022/01/28 07:15:13;;;;;;;20.50;1.88;;;2.60;99.90;;;;;;5014784;28;20049;-73
2022/01/28 07:17:38;;;;;;;19.35;2.15;;;2.50;99.90;;;;;;5013558;28;20045;-73
2022/01/28 07:20:05;;;;;;;13.95;1.38;;;2.50;99.90;;;;;;5012190;28;20503;-72
2022/01/28 07:22:31;;;;;;;15.32;1.80;;;2.40;99.90;;;;;;5026980;28;20048;-72
2022/01/28 07:24:56;;;;;;;21.50;1.70;;;2.40;99.90;;;;;;5022346;28;20413;-73
2022/01/28 07:27:22;;;;;;;16.98;1.83;;;2.30;99.90;;;;;;5029218;28;20152;-73
2022/01/28 07:29:49;;;;;;;22.23;2.13;;;2.20;99.90;;;;;;5027814;28;20055;-73
2022/01/28 07:32:15;;;;;;;20.35;1.83;;;2.20;99.90;;;;;;5025542;28;20045;-73
2022/01/28 07:34:40;;;;;;;24.55;2.53;;;2.10;99.90;;;;;;5010367;28;20390;-72
2022/01/28 07:37:06;;;;;;;17.20;1.90;;;2.10;99.90;;;;;;5012497;28;20049;-72
2022/01/28 07:39:31;;;;;;;16.80;1.85;;;2.00;99.90;;;;;;5030379;28;20042;-72
2022/01/28 07:41:57;;;;;;;15.75;2.25;;;2.00;99.90;;;;;;5012143;28;20502;-73
2022/01/28 07:44:23;;;;;;;18.85;2.13;;;2.00;99.90;;;;;;5028194;28;20152;-73
2022/01/28 07:46:49;;;;;;;17.13;1.45;;;2.10;99.90;;;;;;5032280;28;20489;-72
2022/01/28 07:49:15;;;;;;;17.45;2.30;;;2.10;99.90;;;;;;5037659;28;20071;-72
2022/01/28 07:51:42;;;;;;;13.85;1.38;;;2.30;99.90;;;;;;5029218;28;20049;-72
2022/01/28 07:54:08;;;;;;;19.10;2.85;;;2.30;99.90;;;;;;5025447;28;20041;-72
2022/01/28 07:56:34;;;;;;;16.85;2.15;;;2.40;99.90;;;;;;5026981;28;20072;-72
2022/01/28 07:59:00;;;;;;;17.25;1.67;;;2.50;99.90;;;;;;5029666;28;20572;-73
2022/01/28 08:01:25;;;;;;;16.63;2.38;;;2.60;99.90;;;;;;5029042;28;20080;-72
2022/01/28 08:03:51;;;;;;;22.73;1.63;;;2.60;99.90;;;;;;5027517;28;20065;-73
2022/01/28 08:06:17;;;;;;;15.48;2.08;;;2.70;99.90;;;;;;5029332;28;20045;-72
2022/01/28 08:08:42;;;;;;;16.88;2.13;;;2.70;99.90;;;;;;5028925;28;20080;-73
2022/01/28 08:11:08;;;;;;;18.40;2.55;;;2.80;99.90;;;;;;5028585;28;20771;-73
2022/01/28 08:13:33;;;;;;;16.13;2.50;;;2.90;99.90;;;;;;5029463;28;20048;-73
2022/01/28 08:16:00;;;;;;;17.35;1.77;;;2.90;99.90;;;;;;5012246;28;20041;-73
2022/01/28 08:18:25;;;;;;;22.80;1.88;;;3.00;99.90;;;;;;5029667;28;20432;-74
2022/01/28 08:20:52;;;;;;;20.77;2.80;;;3.00;99.90;;;;;;5030506;28;20044;-73
2022/01/28 08:23:18;;;;;;;17.90;2.35;;;3.00;99.90;;;;;;5028977;28;20136;-74
2022/01/28 08:25:44;;;;;;;19.45;2.60;;;3.10;99.90;;;;;;5029573;28;20133;-74
2022/01/28 08:28:10;;;;;;;18.35;3.30;;;3.20;99.90;;;;;;5026196;28;20041;-73
2022/01/28 08:30:38;;;;;;;23.80;2.80;;;3.20;99.90;;;;;;5028380;28;20042;-72
2022/01/28 08:33:05;;;;;;;25.52;2.63;;;3.20;99.90;;;;;;5029747;28;20044;-73
2022/01/28 08:35:34;;;;;;;16.35;2.13;;;3.20;99.90;;;;;;5029237;28;20405;-73
2022/01/28 08:38:00;;;;;;;22.02;2.70;;;3.30;99.90;;;;;;5027826;28;20103;-73
2022/01/28 08:40:28;;;;;;;25.92;2.05;;;3.20;99.90;;;;;;5029592;28;20064;-73
2022/01/28 08:42:54;;;;;;;18.98;3.20;;;3.30;99.90;;;;;;5027909;28;20083;-73
2022/01/28 08:45:20;;;;;;;23.77;2.10;;;3.40;99.90;;;;;;5029137;28;20057;-73
2022/01/28 08:47:46;;;;;;;24.35;2.85;;;3.40;99.90;;;;;;5028543;28;20555;-73
2022/01/28 08:50:12;;;;;;;20.15;2.17;;;3.50;99.90;;;;;;5012271;28;20045;-73
2022/01/28 08:52:38;;;;;;;19.75;2.25;;;3.50;99.90;;;;;;5029275;28;20049;-73
2022/01/28 08:55:04;;;;;;;22.77;2.45;;;3.40;99.90;;;;;;5012280;28;20117;-73
2022/01/28 08:57:30;;;;;;;19.98;2.58;;;3.50;99.90;;;;;;5028804;28;20041;-73
2022/01/28 08:59:56;;;;;;;22.27;2.40;;;3.50;99.90;;;;;;5027744;28;20055;-73
2022/01/28 09:02:22;;;;;;;16.55;2.65;;;3.60;99.90;;;;;;5029393;28;20038;-73
2022/01/28 09:04:49;;;;;;;15.75;1.58;;;3.70;99.90;;;;;;5028411;28;20045;-73
2022/01/28 09:07:15;;;;;;;17.58;2.58;;;3.80;99.90;;;;;;5029509;28;20042;-73
2022/01/28 09:09:48;;;;;;;14.77;2.55;;;4.00;99.90;;;;;;5028709;28;20095;-73
2022/01/28 09:12:25;;;;;;;18.55;2.58;;;4.10;99.90;;;;;;5012476;28;20049;-73
2022/01/28 09:14:51;;;;;;;17.20;2.58;;;4.20;99.80;;;;;;5028295;28;20050;-73
2022/01/28 09:17:19;;;;;;;16.38;2.97;;;4.30;99.70;;;;;;5016219;28;20083;-73
2022/01/28 09:19:44;;;;;;;17.60;2.75;;;4.40;99.60;;;;;;5031864;28;20049;-73
2022/01/28 09:22:10;;;;;;;14.23;2.72;;;4.50;99.40;;;;;;5032800;28;20038;-74
2022/01/28 09:24:36;;;;;;;14.60;2.47;;;4.50;99.30;;;;;;5032074;28;20053;-74
2022/01/28 09:27:02;;;;;;;24.17;3.63;;;4.60;99.20;;;;;;5032082;28;20041;-74
2022/01/28 09:29:27;;;;;;;19.30;3.10;;;4.60;99.20;;;;;;5035723;28;20057;-74
2022/01/28 09:31:53;;;;;;;16.33;3.00;;;4.70;99.20;;;;;;5034009;28;20128;-74
2022/01/28 09:34:18;;;;;;;13.25;2.72;;;4.70;99.20;;;;;;5032970;28;20030;-74
2022/01/28 09:36:47;;;;;;;24.00;2.83;;;4.80;99.30;;;;;;5017375;28;20091;-74
2022/01/28 09:39:13;;;;;;;24.02;4.45;;;5.00;99.30;;;;;;5012287;28;21016;-74
2022/01/28 09:41:40;;;;;;;24.95;3.58;;;5.10;99.10;;;;;;5031227;28;20088;-74
2022/01/28 09:44:09;;;;;;;17.35;3.70;;;5.20;98.80;;;;;;5013394;28;20053;-75
2022/01/28 09:46:35;;;;;;;17.45;3.10;;;5.30;98.50;;;;;;5031482;28;20068;-74
2022/01/28 09:49:02;;;;;;;18.05;2.90;;;5.30;98.50;;;;;;5024436;28;20501;-74
2022/01/28 09:51:28;;;;;;;21.52;3.35;;;5.40;98.50;;;;;;5026954;28;20520;-74
2022/01/28 09:53:53;;;;;;;17.15;2.42;;;5.40;98.30;;;;;;5028895;28;20046;-74
2022/01/28 09:56:19;;;;;;;22.05;2.70;;;5.50;98.30;;;;;;5031641;28;20522;-74
2022/01/28 09:58:45;;;;;;;15.02;3.10;;;5.50;98.10;;;;;;5002974;28;20121;-74
2022/01/28 10:01:10;;;;;;;18.50;2.83;;;5.50;98.10;;;;;;5014502;28;20107;-74
2022/01/28 10:03:36;;;;;;;14.40;2.90;;;5.60;97.90;;;;;;5030202;28;20111;-74
2022/01/28 10:06:02;;;;;;;22.50;2.90;;;5.60;97.90;;;;;;5031901;28;20055;-74
2022/01/28 10:08:28;;;;;;;19.23;3.15;;;5.70;97.90;;;;;;5030739;28;20060;-74
2022/01/28 10:11:14;;;;;;;17.63;2.75;;;5.70;97.70;;;;;;5031702;28;20056;-74
2022/01/28 10:13:55;;;;;;;16.73;2.65;;;5.80;97.70;;;;;;5030523;28;20501;-73
2022/01/28 10:16:23;;;;;;;19.20;2.67;;;5.80;97.60;;;;;;5032156;28;20049;-73
2022/01/28 10:19:18;;;;;;;16.85;2.67;;;5.90;97.40;;;;;;5026693;28;20163;-74
2022/01/28 10:21:45;;;;;;;24.20;3.00;;;5.90;97.50;;;;;;5017562;28;20053;-74
2022/01/28 10:24:18;;;;;;;16.73;2.38;;;6.00;97.40;;;;;;5031335;28;20037;-74
2022/01/28 10:26:50;;;;;;;;;;;6.10;97.10;;;;;;5032076;28;20041;-74
2022/01/28 10:29:38;;;;;;;19.55;1.95;;;6.20;96.70;;;;;;5030929;28;19983;-74
2022/01/28 10:32:06;;;;;;;14.60;2.10;;;6.20;97.10;;;;;;5050783;28;20131;-72
2022/01/28 10:34:47;;;;;;;11.43;2.10;;;6.30;96.90;;;;;;5041318;28;20072;-72
2022/01/28 10:37:25;;;;;;;17.55;2.33;;;6.40;96.60;;;;;;5033103;28;20552;-72
2022/01/28 10:40:07;;;;;;;18.33;2.10;;;6.50;96.60;;;;;;5030571;28;20041;-72
2022/01/28 10:42:49;;;;;;;16.92;2.10;;;6.60;96.40;;;;;;5030835;28;20136;-72
2022/01/28 10:45:17;;;;;;;15.23;2.28;;;6.60;96.30;;;;;;5031335;28;20497;-72
2022/01/28 10:47:49;;;;;;;16.52;2.20;;;6.70;96.10;;;;;;5031027;28;20128;-72
2022/01/28 10:50:15;;;;;;;16.92;2.22;;;6.80;96.00;;;;;;5030575;28;20405;-73
2022/01/28 10:52:40;;;;;;;15.52;2.42;;;6.90;95.60;;;;;;5031313;28;20064;-72
2022/01/28 10:55:06;;;;;;;18.80;2.53;;;6.90;95.40;;;;;;5031204;28;20505;-72
2022/01/28 10:57:32;;;;;;;18.50;2.45;;;6.90;95.20;;;;;;5030640;28;20079;-72
2022/01/28 10:59:58;;;;;;;14.27;1.52;;;6.90;95.10;;;;;;5031022;28;20081;-73
2022/01/28 11:02:25;;;;;;;20.05;2.03;;;7.00;95.00;;;;;;5031049;28;20045;-72
2022/01/28 11:04:54;;;;;;;14.77;1.67;;;7.00;94.90;;;;;;5029618;28;20048;-72
2022/01/28 11:07:20;;;;;;;18.60;2.17;;;7.00;94.50;;;;;;5014208;28;20056;-72
2022/01/28 11:09:46;;;;;;;12.00;1.50;;;7.00;94.60;;;;;;5034851;28;20041;-72
2022/01/28 11:12:13;;;;;;;17.05;1.70;;;7.20;94.80;;;;;;5032243;28;20044;-72
2022/01/28 11:14:39;;;;;;;14.38;2.33;;;7.20;94.50;;;;;;5030698;28;20601;-72
2022/01/28 11:17:05;;;;;;;15.13;2.17;;;7.30;94.30;;;;;;5029837;28;20437;-72
2022/01/28 11:19:34;;;;;;;15.38;2.08;;;7.40;94.10;;;;;;5030403;28;20091;-72
2022/01/28 11:22:39;;;;;;;13.65;1.65;;;7.40;93.70;;;;;;5030358;28;20053;-72
2022/01/28 11:25:40;;;;;;;18.08;2.33;;;7.40;93.00;;;;;;5029391;28;20053;-72
2022/01/28 11:28:13;;;;;;;16.63;2.45;;;7.50;93.00;;;;;;5029897;28;20519;-72
2022/01/28 11:30:48;;;;;;;15.02;1.85;;;7.50;92.90;;;;;;5010798;28;20052;-72
2022/01/28 11:33:15;;;;;;;13.25;1.48;;;7.60;92.90;;;;;;5027954;28;20053;-72
2022/01/28 11:35:58;;;;;;;19.25;2.03;;;7.60;92.90;;;;;;5029244;28;20485;-72
2022/01/28 11:38:26;;;;;;;14.77;1.45;;;7.70;92.60;;;;;;5029700;28;20049;-72
2022/01/28 11:41:00;;;;;;;13.02;2.17;;;7.80;92.50;;;;;;5040691;28;20056;-72
2022/01/28 11:43:31;;;;;;;14.95;2.03;;;7.80;92.40;;;;;;5042566;28;20080;-73
2022/01/28 11:46:04;;;;;;;13.50;1.48;;;7.80;92.40;;;;;;5029218;28;20045;-74
2022/01/28 11:48:52;;;;;;;14.45;1.38;;;7.90;92.30;;;;;;5030274;28;20095;-73
2022/01/28 11:51:23;;;;;;;13.23;1.73;;;8.00;92.10;;;;;;5030386;28;20498;-73
2022/01/28 11:53:57;;;;;;;15.38;1.77;;;7.90;91.80;;;;;;5028723;28;20042;-72
2022/01/28 11:56:26;;;;;;;18.88;2.00;;;7.90;91.30;;;;;;5030169;28;20041;-72
2022/01/28 11:59:02;;;;;;;12.77;2.03;;;7.80;91.40;;;;;;5028136;28;20417;-72
2022/01/28 12:01:40;;;;;;;22.42;2.33;;;7.80;91.30;;;;;;5013740;28;20060;-72
2022/01/28 12:04:27;;;;;;;14.63;2.15;;;7.80;91.30;;;;;;5029377;28;20077;-73
2022/01/28 12:07:06;;;;;;;17.13;2.10;;;7.80;91.50;;;;;;5008923;28;20046;-72
2022/01/28 12:09:34;;;;;;;14.13;1.70;;;7.90;91.50;;;;;;5013719;28;20402;-72
2022/01/28 12:12:00;;;;;;;16.15;2.53;;;8.00;91.30;;;;;;5028517;28;20506;-72
2022/01/28 12:14:52;;;;;;;11.10;1.38;;;8.00;91.20;;;;;;5028712;28;20056;-72
2022/01/28 12:17:33;;;;;;;20.47;2.23;;;8.00;90.90;;;;;;5029875;28;20501;-72
2022/01/28 12:20:34;;;;;;;12.27;1.63;;;8.10;91.00;;;;;;5029255;28;20350;-72
2022/01/28 12:23:00;;;;;;;11.77;1.50;;;8.10;91.20;;;;;;5029658;28;20037;-72
2022/01/28 12:25:40;;;;;;;18.38;1.75;;;8.20;91.10;;;;;;5013272;28;20505;-72
2022/01/28 12:28:20;;;;;;;15.25;1.67;;;8.30;90.90;;;;;;5028621;28;20049;-72
2022/01/28 12:30:46;;;;;;;13.45;1.70;;;8.30;90.90;;;;;;5029148;28;20085;-72
2022/01/28 12:33:12;;;;;;;15.68;2.17;;;8.40;90.90;;;;;;5029738;28;20084;-72
2022/01/28 12:35:38;;;;;;;14.73;2.83;;;8.50;90.80;;;;;;5028971;28;20053;-72
2022/01/28 12:38:05;;;;;;;16.20;2.58;;;8.50;90.50;;;;;;5029161;28;20490;-72
2022/01/28 12:40:42;;;;;;;19.52;2.60;;;8.60;90.90;;;;;;5013207;28;20136;-72
2022/01/28 12:43:08;;;;;;;24.90;2.85;;;8.70;91.10;;;;;;5028807;28;20045;-72
2022/01/28 12:45:35;;;;;;;20.38;2.80;;;8.80;91.00;;;;;;5013273;28;20049;-72
2022/01/28 12:48:01;;;;;;;12.15;2.97;;;9.00;91.20;;;;;;5029217;28;20076;-73
2022/01/28 12:50:32;;;;;;;20.10;2.88;;;9.20;91.00;;;;;;5031619;28;20049;-72
2022/01/28 12:52:58;;;;;;;17.23;2.33;;;9.40;90.60;;;;;;5032918;28;20595;-75
2022/01/28 12:55:33;;;;;;;13.85;2.30;;;9.60;90.50;;;;;;5033219;28;20053;-72
2022/01/28 12:57:58;;;;;;;10.90;1.88;;;9.90;89.00;;;;;;5034272;28;20041;-73
2022/01/28 13:00:24;;;;;;;12.57;0.95;;;10.00;88.30;;;;;;5033661;28;20391;-72
2022/01/28 13:02:51;;;;;;;18.45;2.60;;;10.00;87.30;;;;;;5032621;28;20049;-72
2022/01/28 13:05:33;;;;;;;12.90;1.35;;;10.40;86.70;;;;;;5049474;28;20096;-73
2022/01/28 13:10:43;;;;;;;13.50;1.98;;;10.80;83.20;;;;;;5032199;28;20069;-72
2022/01/28 13:13:10;;;;;;;19.27;1.80;;;10.70;83.40;;;;;;5032766;28;20049;-73
2022/01/28 13:15:37;;;;;;;12.05;1.73;;;11.00;83.60;;;;;;5033127;28;20478;-72
2022/01/28 13:18:07;;;;;;;12.35;1.05;;;11.30;82.10;;;;;;5031585;28;20053;-73
2022/01/28 13:20:35;;;;;;;10.70;1.23;;;11.10;81.30;;;;;;5016691;28;20095;-72
2022/01/28 13:23:01;;;;;;;14.93;1.40;;;10.90;82.30;;;;;;5015998;28;20045;-73
2022/01/28 13:25:28;;;;;;;11.48;1.27;;;10.90;82.40;;;;;;5032369;28;20038;-72
2022/01/28 13:28:01;;;;;;;13.50;1.83;;;10.80;80.60;;;;;;5032267;28;20515;-72
2022/01/28 13:30:33;;;;;;;10.57;2.05;;;11.00;80.80;;;;;;5012828;28;20136;-72
2022/01/28 13:33:08;;;;;;;11.00;1.13;;;11.30;80.50;;;;;;5012539;28;20053;-73
2022/01/28 13:35:36;;;;;;;14.45;1.70;;;11.70;78.80;;;;;;5032782;28;20120;-72
2022/01/28 13:38:12;;;;;;;11.85;1.38;;;11.50;78.70;;;;;;5014721;28;20418;-72
2022/01/28 13:40:39;;;;;;;12.02;1.13;;;11.20;79.30;;;;;;5012737;28;20052;-72
2022/01/28 13:43:19;;;;;;;14.40;1.38;;;11.20;79.90;;;;;;5010929;28;20077;-73
2022/01/28 13:46:04;;;;;;;10.65;1.17;;;11.20;77.60;;;;;;4980977;28;20050;-73
2022/01/28 13:48:34;;;;;;;15.48;1.67;;;11.10;79.00;;;;;;4993215;28;20042;-73
2022/01/28 13:51:08;;;;;;;14.63;1.45;;;11.30;79.30;;;;;;5009943;28;20045;-73
2022/01/28 13:56:29;;;;;;;15.20;1.30;;;11.40;77.80;;;;;;5012244;28;20413;-72
2022/01/28 13:58:55;;;;;;;14.07;1.52;;;11.20;79.20;;;;;;4992802;28;20038;-71
2022/01/28 14:01:24;;;;;;;9.73;1.15;;;11.00;78.90;;;;;;5011507;28;20046;-71
2022/01/28 14:03:58;;;;;;;15.70;1.10;;;10.70;80.00;;;;;;4995742;28;20458;-72
2022/01/28 14:06:25;;;;;;;12.65;1.02;;;10.40;80.80;;;;;;5009516;28;20050;-72
2022/01/28 14:08:54;;;;;;;12.48;1.30;;;10.20;81.20;;;;;;5011193;28;20490;-72
2022/01/28 14:11:51;;;;;;;12.95;1.30;;;9.90;81.80;;;;;;5011199;28;20052;-71
2022/01/28 14:14:33;;;;;;;12.77;1.70;;;9.60;81.40;;;;;;5011588;28;20096;-72